Time;durP1;ratioP1;P1;durP2;ratioP2;P2;SDS_P1;SDS_P2;PMS_P1;PMS_P2;Temp;Humidity;BMP_temperature;BMP_pressure;BME280_temperature;BME280_humidity;BME280_pressure;Samples;Min_cycle;Max_cycle;Signal;HPM_P1;HPM_P2
2023/09/10 06:00:24;;;;;;;;;;;;;;;15.96;71.43;99540.66;107766;1266;107299;31
2023/09/10 06:02:53;;;;;;;;;;;;;;;16.05;71.49;99542.04;105829;1269;97925;-91
2023/09/10 06:05:21;;;;;;;;;;;;;;;16.15;71.35;99543.49;105822;1267;98006;-90
2023/09/10 06:07:54;;;;;;;;;;;;;;;16.23;71.45;99541.55;105759;1268;110366;-91
2023/09/10 06:10:22;;;;;;;;;;;;;;;16.31;71.46;99541.83;105918;1270;98090;-91
2023/09/10 06:12:50;;;;;;;;;;;;;;;16.39;71.69;99542.76;106007;1271;107767;-92
2023/09/10 06:15:22;;;;;;;;;;;;;;;16.49;71.67;99543.48;105876;1270;98897;-90
2023/09/10 06:17:50;;;;;;;;;;;;;;;16.57;71.75;99541.34;105454;1269;98599;-90
2023/09/10 06:20:18;;;;;;;;;;;;;;;16.65;71.83;99536.33;105826;1272;110882;-91
2023/09/10 06:22:50;;;;;;;;;;;;;;;16.74;71.80;99537.15;106097;1268;97958;-92
2023/09/10 06:25:38;;;;;;;;;;;;;;;16.84;71.81;99540.75;105975;1268;106665;-90
2023/09/10 06:28:07;;;;;;;;;;;;;;;16.92;71.91;99542.14;105913;1270;97985;-89
2023/09/10 06:30:36;;;;;;;;;;;;;;;17.00;71.99;99540.39;105892;1271;97807;-92
2023/09/10 06:33:05;;;;;;;;;;;;;;;17.08;72.08;99541.24;105395;1273;111838;-90
2023/09/10 06:35:34;;;;;;;;;;;;;;;17.19;72.08;99540.13;105936;1266;98043;-89
2023/09/10 06:38:07;;;;;;;;;;;;;;;17.26;72.12;99543.20;105591;1270;106674;-92
2023/09/10 06:40:37;;;;;;;;;;;;;;;17.34;72.04;99543.02;105345;1273;98101;-89
2023/09/10 06:43:10;;;;;;;;;;;;;;;17.41;72.00;99541.45;105468;1272;97883;-90
2023/09/10 06:45:43;;;;;;;;;;;;;;;17.50;72.29;99543.31;105169;1270;111444;-91
2023/09/10 06:48:14;;;;;;;;;;;;;;;17.58;72.16;99546.45;105583;1269;98081;-91
2023/09/10 06:50:43;;;;;;;;;;;;;;;17.67;72.10;99546.38;105272;1276;107646;-89
2023/09/10 06:53:15;;;;;;;;;;;;;;;17.74;72.26;99544.27;105320;1268;97997;-90
2023/09/10 06:55:46;;;;;;;;;;;;;;;17.83;72.32;99544.30;105520;1273;98023;-91
2023/09/10 06:58:17;;;;;;;;;;;;;;;17.90;72.17;99544.75;105468;1269;110924;-91
2023/09/10 07:00:46;;;;;;;;;;;;;;;17.96;72.14;99546.51;105089;1270;97908;-90
2023/09/10 07:03:14;;;;;;;;;;;;;;;18.02;72.13;99544.84;105210;1273;107891;-92
2023/09/10 07:05:43;;;;;;;;;;;;;;;18.08;72.15;99545.88;104731;1270;98309;-90
2023/09/10 07:08:15;;;;;;;;;;;;;;;18.15;72.10;99545.07;105318;1270;97962;-90
2023/09/10 07:10:45;;;;;;;;;;;;;;;18.24;72.27;99547.10;105229;1272;111274;-91
2023/09/10 07:13:17;;;;;;;;;;;;;;;18.30;72.14;99549.89;104861;1273;98068;-91
2023/09/10 07:15:48;;;;;;;;;;;;;;;18.38;72.27;99553.27;104712;1269;106678;-91
2023/09/10 07:18:19;;;;;;;;;;;;;;;18.45;72.22;99554.73;105576;1269;98033;-89
2023/09/10 07:20:50;;;;;;;;;;;;;;;18.51;72.18;99554.65;105675;1270;98782;-89
2023/09/10 07:23:18;;;;;;;;;;;;;;;18.57;72.32;99557.11;105387;1270;112186;-91
2023/09/10 07:25:46;;;;;;;;;;;;;;;18.66;72.26;99556.69;105200;1270;98064;-90
2023/09/10 07:28:14;;;;;;;;;;;;;;;18.72;72.22;99552.09;105058;1275;106111;-90
2023/09/10 07:30:47;;;;;;;;;;;;;;;18.80;72.29;99554.61;105130;1271;97996;-90
2023/09/10 07:33:21;;;;;;;;;;;;;;;18.87;72.13;99554.38;105150;1273;97991;-90
2023/09/10 07:35:49;;;;;;;;;;;;;;;18.95;72.09;99550.78;105182;1269;111505;-89
2023/09/10 07:38:17;;;;;;;;;;;;;;;19.00;72.15;99552.98;105267;1275;97914;-88
2023/09/10 07:40:45;;;;;;;;;;;;;;;19.07;72.16;99545.66;105180;1270;106629;-90
2023/09/10 07:43:13;;;;;;;;;;;;;;;19.11;72.15;99546.45;105245;1270;98068;-90
2023/09/10 07:45:44;;;;;;;;;;;;;;;19.18;72.15;99543.06;105190;1270;99314;-89
2023/09/10 07:48:12;;;;;;;;;;;;;;;19.22;72.08;99539.39;105268;1273;111258;-90
2023/09/10 07:50:40;;;;;;;;;;;;;;;19.28;72.26;99539.73;105292;1270;97959;-89
2023/09/10 07:53:09;;;;;;;;;;;;;;;19.35;72.01;99544.38;105328;1270;107647;-89
2023/09/10 07:55:37;;;;;;;;;;;;;;;19.41;72.09;99543.10;105149;1273;97897;-91
2023/09/10 07:58:05;;;;;;;;;;;;;;;19.48;71.92;99543.83;105305;1270;97954;-89
2023/09/10 08:00:36;;;;;;;;;;;;;;;19.53;71.85;99544.75;105225;1270;111418;-89
2023/09/10 08:03:06;;;;;;;;;;;;;;;19.60;71.92;99546.84;104985;1271;97981;-92
2023/09/10 08:05:35;;;;;;;;;;;;;;;19.67;71.95;99545.98;104994;1276;108391;-90
2023/09/10 08:08:07;;;;;;;;;;;;;;;19.73;71.73;99540.55;104913;1271;97970;-92
2023/09/10 08:10:35;;;;;;;;;;;;;;;19.79;71.86;99536.16;105103;1270;98357;-91
2023/09/10 08:13:03;;;;;;;;;;;;;;;19.85;71.73;99536.43;105141;1273;110756;-90
2023/09/10 08:15:32;;;;;;;;;;;;;;;19.90;71.61;99540.44;105154;1272;97946;-91
2023/09/10 08:18:00;;;;;;;;;;;;;;;19.95;71.69;99542.09;105167;1270;107695;-92
2023/09/10 08:20:50;;;;;;;;;;;;;;;20.02;71.69;99538.14;105091;1270;98000;-92
2023/09/10 08:23:18;;;;;;;;;;;;;;;20.06;71.54;99538.05;105024;1275;97999;-92
2023/09/10 08:25:52;;;;;;;;;;;;;;;20.11;71.82;99537.14;105036;1271;110403;-92
2023/09/10 08:28:21;;;;;;;;;;;;;;;20.21;71.66;99537.39;104985;1270;98014;-90
2023/09/10 08:30:53;;;;;;;;;;;;;;;20.25;71.52;99535.70;105447;1270;107355;-93
2023/09/10 08:33:25;;;;;;;;;;;;;;;20.31;71.57;99533.80;106066;1273;98004;-91
2023/09/10 08:35:58;;;;;;;;;;;;;;;20.39;71.61;99532.59;105715;1270;98049;-91
2023/09/10 08:38:26;;;;;;;;;;;;;;;20.45;71.37;99531.08;105333;1271;111946;-91
2023/09/10 08:40:54;;;;;;;;;;;;;;;20.51;71.43;99532.10;104869;1270;97786;-90
2023/09/10 08:43:46;;;;;;;;;;;;;;;20.55;71.22;99532.21;105279;1272;108148;-91
2023/09/10 08:46:14;;;;;;;;;;;;;;;20.59;71.17;99529.63;105330;1273;97890;-92
2023/09/10 08:48:42;;;;;;;;;;;;;;;20.67;71.25;99531.39;105593;1271;97975;-92
2023/09/10 08:51:11;;;;;;;;;;;;;;;20.73;71.15;99532.92;105096;1276;111190;-89
2023/09/10 08:53:40;;;;;;;;;;;;;;;20.77;70.96;99532.75;105335;1270;97925;-90
2023/09/10 08:56:09;;;;;;;;;;;;;;;20.83;71.21;99532.80;105154;1270;107752;-90
2023/09/10 08:58:37;;;;;;;;;;;;;;;20.90;71.11;99533.65;105298;1270;98664;-90
2023/09/10 09:01:09;;;;;;;;;;;;;;;20.95;70.84;99534.55;105455;1270;97994;-91
2023/09/10 09:03:38;;;;;;;;;;;;;;;21.01;70.93;99535.23;105634;1270;111005;-91
2023/09/10 09:06:06;;;;;;;;;;;;;;;21.04;70.93;99531.46;105246;1270;97999;-91
2023/09/10 09:08:39;;;;;;;;;;;;;;;21.09;70.79;99531.77;105349;1273;108357;-91
2023/09/10 09:11:09;;;;;;;;;;;;;;;21.14;70.83;99529.62;105008;1273;98049;-91
2023/09/10 09:13:44;;;;;;;;;;;;;;;21.23;70.83;99529.56;105040;1270;97098;-90
2023/09/10 09:16:18;;;;;;;;;;;;;;;21.29;70.64;99528.75;104980;1273;110996;-90
2023/09/10 09:18:49;;;;;;;;;;;;;;;21.37;70.55;99527.88;105072;1275;97990;-91
2023/09/10 09:21:20;;;;;;;;;;;;;;;21.41;70.31;99528.27;105092;1273;107314;-90
2023/09/10 09:23:51;;;;;;;;;;;;;;;21.42;70.48;99524.95;104920;1270;97988;-90
2023/09/10 09:26:22;;;;;;;;;;;;;;;21.44;70.46;99527.22;105222;1275;98002;-90
2023/09/10 09:28:52;;;;;;;;;;;;;;;21.47;70.24;99530.77;105590;1270;111331;-90
2023/09/10 09:31:21;;;;;;;;;;;;;;;21.47;70.22;99524.27;105557;1270;97991;-93
2023/09/10 09:33:49;;;;;;;;;;;;;;;21.48;70.12;99526.58;105810;1270;107660;-91
2023/09/10 09:36:24;;;;;;;;;;;;;;;21.52;70.34;99522.23;105691;1271;97947;-90
2023/09/10 09:38:54;;;;;;;;;;;;;;;21.57;70.42;99522.73;105428;1271;98002;-90
2023/09/10 09:41:22;;;;;;;;;;;;;;;21.69;70.28;99525.75;105431;1276;111265;-92
2023/09/10 09:43:51;;;;;;;;;;;;;;;21.80;70.28;99522.17;105490;1270;97965;-90
2023/09/10 09:46:20;;;;;;;;;;;;;;;21.89;70.17;99526.11;105312;1270;107568;-91
2023/09/10 09:48:49;;;;;;;;;;;;;;;21.96;70.13;99520.91;105379;1273;98007;-93
2023/09/10 09:51:21;;;;;;;;;;;;;;;22.02;69.88;99523.01;105511;1269;97941;-92
2023/09/10 09:53:50;;;;;;;;;;;;;;;22.01;69.73;99521.98;105482;1276;110775;-91
2023/09/10 09:56:21;;;;;;;;;;;;;;;22.00;69.63;99518.31;105608;1270;97978;-92
2023/09/10 09:58:49;;;;;;;;;;;;;;;22.03;69.46;99515.45;105361;1273;107784;-92
2023/09/10 10:01:20;;;;;;;;;;;;;;;22.09;69.47;99513.88;105105;1273;97998;-92
2023/09/10 10:03:50;;;;;;;;;;;;;;;22.18;69.36;99515.61;105291;1276;98013;-91
2023/09/10 10:06:21;;;;;;;;;;;;;;;22.21;69.44;99513.30;105247;1270;111451;-91
2023/09/10 10:08:50;;;;;;;;;;;;;;;22.25;69.24;99505.20;105157;1270;97930;-90
2023/09/10 10:11:29;;;;;;;;;;;;;;;22.27;69.31;99506.02;105388;1270;107698;-91
2023/09/10 10:13:59;;;;;;;;;;;;;;;22.29;69.00;99504.57;105611;1270;97881;-93
2023/09/10 10:16:29;;;;;;;;;;;;;;;22.33;69.05;99503.71;105438;1270;97978;-93
2023/09/10 10:19:02;;;;;;;;;;;;;;;22.36;68.95;99503.42;105452;1276;111324;-91
2023/09/10 10:21:51;;;;;;;;;;;;;;;22.41;69.17;99499.26;105610;1269;98042;-89
2023/09/10 10:24:19;;;;;;;;;;;;;;;22.45;69.10;99498.45;105327;1270;107636;-90
2023/09/10 10:26:49;;;;;;;;;;;;;;;22.44;69.00;99497.94;105476;1270;97989;-91
2023/09/10 10:29:22;;;;;;;;;;;;;;;22.47;68.94;99496.95;104600;1275;911303;-91
2023/09/10 10:32:12;;;;;;;;;;;;;;;22.51;68.85;99491.64;105020;1270;111818;-92
2023/09/10 10:34:48;;;;;;;;;;;;;;;22.53;68.74;99489.05;105304;1273;97938;-89
2023/09/10 10:37:24;;;;;;;;;;;;;;;22.56;68.78;99483.95;105125;1276;108139;-91
2023/09/10 10:40:06;;;;;;;;;;;;;;;22.58;68.94;99483.30;105919;1270;98087;-90
2023/09/10 10:45:53;;;;;;;;;;;;;;;22.58;68.33;99475.61;105751;1270;111633;-91
2023/09/10 10:48:24;;;;;;;;;;;;;;;22.59;68.37;99477.26;105308;1276;98050;-90
2023/09/10 10:50:54;;;;;;;;;;;;;;;22.63;68.38;99474.67;105389;1270;106344;-92
2023/09/10 10:53:23;;;;;;;;;;;;;;;22.68;68.44;99470.25;105256;1270;98093;-91
2023/09/10 10:56:03;;;;;;;;;;;;;;;22.73;68.40;99465.11;105171;1273;97937;-92
2023/09/10 10:58:48;;;;;;;;;;;;;;;22.73;68.44;99460.62;105095;1270;110698;-92
2023/09/10 11:01:16;;;;;;;;;;;;;;;22.77;68.30;99462.02;104896;1276;97770;-91
2023/09/10 11:03:47;;;;;;;;;;;;;;;22.79;68.22;99461.05;105027;1270;108082;-92
2023/09/10 11:06:15;;;;;;;;;;;;;;;22.84;68.29;99458.84;105300;1270;97904;-91
2023/09/10 11:08:48;;;;;;;;;;;;;;;22.93;68.23;99453.84;105005;1270;99211;-91
2023/09/10 11:11:34;;;;;;;;;;;;;;;22.96;68.05;99452.87;105206;1273;111324;-90
2023/09/10 11:14:10;;;;;;;;;;;;;;;22.99;68.00;99456.17;105367;1270;97905;-92
2023/09/10 11:16:43;;;;;;;;;;;;;;;23.01;68.02;99451.70;104885;1273;107838;-90
2023/09/10 11:19:32;;;;;;;;;;;;;;;23.03;68.08;99448.42;105042;1273;97165;-90
2023/09/10 11:22:01;;;;;;;;;;;;;;;23.06;67.99;99449.90;105147;1270;98050;-90
2023/09/10 11:24:31;;;;;;;;;;;;;;;23.03;67.66;99448.94;105026;1270;111269;-91
2023/09/10 11:27:19;;;;;;;;;;;;;;;23.03;67.57;99449.30;105191;1270;99192;-90
2023/09/10 11:30:04;;;;;;;;;;;;;;;23.13;67.82;99445.71;105060;1271;107549;-90
2023/09/10 11:32:32;;;;;;;;;;;;;;;23.12;67.29;99440.10;104981;1275;98020;-90
2023/09/10 11:35:22;;;;;;;;;;;;;;;23.12;67.31;99441.56;104849;1276;98141;-90
2023/09/10 11:37:58;;;;;;;;;;;;;;;23.13;67.32;99439.31;105607;1273;111274;-91
2023/09/10 11:40:26;;;;;;;;;;;;;;;23.15;67.38;99441.82;105947;1273;98295;-92
2023/09/10 11:42:55;;;;;;;;;;;;;;;23.19;67.40;99438.88;105812;1270;107790;-92
2023/09/10 11:46:07;;;;;;;;;;;;;;;23.28;67.48;99437.70;105631;1270;97772;-90
2023/09/10 11:48:36;;;;;;;;;;;;;;;23.32;67.29;99436.27;105419;1276;97951;-90
2023/09/10 11:51:05;;;;;;;;;;;;;;;23.38;67.44;99428.45;105341;1270;111723;-91
2023/09/10 11:53:33;;;;;;;;;;;;;;;23.41;67.27;99427.67;105469;1273;97994;-90
2023/09/10 11:56:02;;;;;;;;;;;;;;;23.44;67.41;99424.20;105285;1270;107682;-90
2023/09/10 11:58:30;;;;;;;;;;;;;;;23.46;67.19;99427.23;105176;1276;97988;-92
2023/09/10 12:00:58;;;;;;;;;;;;;;;23.46;67.21;99421.58;105390;1271;98009;-92
2023/09/10 12:03:27;;;;;;;;;;;;;;;23.48;67.16;99422.13;105381;1275;111445;-92
2023/09/10 12:05:57;;;;;;;;;;;;;;;23.50;67.13;99419.01;105369;1273;97848;-90
2023/09/10 12:08:28;;;;;;;;;;;;;;;23.51;66.97;99414.22;105268;1273;107645;-91
2023/09/10 12:11:03;;;;;;;;;;;;;;;23.50;66.97;99409.74;104891;1279;98688;-92
2023/09/10 12:13:37;;;;;;;;;;;;;;;23.52;66.95;99408.30;105227;1270;97949;-91
2023/09/10 12:16:06;;;;;;;;;;;;;;;23.55;66.86;99407.23;105227;1271;111289;-90
2023/09/10 12:18:36;;;;;;;;;;;;;;;23.58;66.77;99407.19;105247;1271;98329;-90
2023/09/10 12:21:06;;;;;;;;;;;;;;;23.61;66.76;99399.88;105241;1270;107275;-92
2023/09/10 12:23:34;;;;;;;;;;;;;;;23.63;66.72;99402.17;105248;1270;97995;-89
2023/09/10 12:26:04;;;;;;;;;;;;;;;23.66;66.51;99402.96;105203;1271;97982;-92
2023/09/10 12:28:35;;;;;;;;;;;;;;;23.71;66.66;99403.34;105207;1273;111382;-92
2023/09/10 12:31:03;;;;;;;;;;;;;;;23.78;66.42;99402.34;104854;1270;98067;-91
2023/09/10 12:33:32;;;;;;;;;;;;;;;23.76;66.42;99401.19;105184;1270;107839;-92
2023/09/10 12:36:01;;;;;;;;;;;;;;;23.79;66.38;99401.90;104875;1271;98091;-90
2023/09/10 12:38:30;;;;;;;;;;;;;;;23.80;66.16;99398.73;105007;1270;98439;-92
2023/09/10 12:40:59;;;;;;;;;;;;;;;23.79;66.20;99399.14;104989;1270;111372;-90
2023/09/10 12:43:29;;;;;;;;;;;;;;;23.80;66.20;99402.45;105062;1273;97834;-90
2023/09/10 12:45:57;;;;;;;;;;;;;;;23.84;66.18;99408.94;105109;1276;107731;-90
2023/09/10 12:48:25;;;;;;;;;;;;;;;23.84;66.10;99407.81;105161;1276;96701;-91
2023/09/10 12:50:55;;;;;;;;;;;;;;;23.84;65.92;99407.22;105915;1274;97854;-90
2023/09/10 12:53:24;;;;;;;;;;;;;;;23.85;65.78;99404.42;106276;1271;110792;-91
2023/09/10 12:55:56;;;;;;;;;;;;;;;23.88;65.82;99404.55;105672;1274;97982;-92
2023/09/10 12:58:26;;;;;;;;;;;;;;;23.91;65.79;99404.18;105558;1270;106868;-91
2023/09/10 13:00:55;;;;;;;;;;;;;;;23.97;65.84;99403.30;105272;1276;99304;-92
2023/09/10 15:48:59;;;;;;;;;;;;;;;23.68;62.81;99326.27;103527;1292;634446;-91
2023/09/10 15:51:29;;;;;;;;;;;;;;;23.62;62.91;99326.50;106080;1267;94234;-92
2023/09/10 15:54:18;;;;;;;;;;;;;;;23.57;63.11;99325.44;106034;1272;94092;-92
2023/09/10 15:56:50;;;;;;;;;;;;;;;23.51;63.01;99326.60;106856;1263;107272;-91
2023/09/10 15:59:19;;;;;;;;;;;;;;;23.45;63.04;99327.98;106919;1267;94480;-93
2023/09/10 16:01:47;;;;;;;;;;;;;;;23.39;63.11;99324.86;105014;1266;1828430;-92
2023/09/10 16:04:15;;;;;;;;;;;;;;;23.33;63.04;99331.64;106332;1263;94303;-91
2023/09/10 16:06:43;;;;;;;;;;;;;;;23.27;63.09;99333.13;106422;1259;94399;-90
2023/09/10 16:09:13;;;;;;;;;;;;;;;23.19;63.13;99334.20;106333;1260;105872;-91
2023/09/10 16:11:41;;;;;;;;;;;;;;;23.12;63.09;99328.16;106361;1263;94263;-93
2023/09/10 16:14:10;;;;;;;;;;;;;;;23.04;63.24;99333.44;106025;1267;108818;-90
2023/09/10 16:16:38;;;;;;;;;;;;;;;22.97;63.16;99332.13;106209;1260;95299;-90
2023/09/10 16:19:09;;;;;;;;;;;;;;;22.90;63.05;99332.67;106288;1263;95192;-91
2023/09/10 16:21:37;;;;;;;;;;;;;;;22.82;63.29;99331.10;105967;1260;107821;-91
2023/09/10 16:24:05;;;;;;;;;;;;;;;22.74;63.33;99332.77;106231;1264;95078;-91
2023/09/10 16:26:34;;;;;;;;;;;;;;;22.66;63.27;99331.75;106135;1260;107289;-91
2023/09/10 16:29:03;;;;;;;;;;;;;;;22.57;63.29;99336.52;105946;1263;95342;-91
2023/09/10 16:31:32;;;;;;;;;;;;;;;22.49;63.29;99335.30;105885;1265;96136;-89
2023/09/10 16:34:07;;;;;;;;;;;;;;;22.40;63.20;99332.23;106278;1263;108582;-91
2023/09/10 16:36:36;;;;;;;;;;;;;;;22.32;63.37;99331.55;106827;1259;94079;-90
2023/09/10 16:39:05;;;;;;;;;;;;;;;22.23;63.57;99332.36;106042;1260;107740;-92
2023/09/10 16:41:34;;;;;;;;;;;;;;;22.13;63.36;99328.71;106415;1260;95167;-90
2023/09/10 16:44:03;;;;;;;;;;;;;;;22.03;63.52;99324.83;106354;1259;95170;-90
2023/09/10 16:46:36;;;;;;;;;;;;;;;21.92;63.58;99326.42;106445;1257;108567;-90
2023/09/10 16:49:05;;;;;;;;;;;;;;;21.82;63.61;99330.07;106550;1259;95349;-90
2023/09/10 16:51:34;;;;;;;;;;;;;;;21.71;63.53;99328.08;106336;1256;107250;-90
2023/09/10 16:54:04;;;;;;;;;;;;;;;21.61;63.46;99328.48;106257;1256;95237;-90
2023/09/10 16:56:32;;;;;;;;;;;;;;;21.52;63.64;99328.64;106489;1261;95307;-91
2023/09/10 16:59:02;;;;;;;;;;;;;;;21.40;63.80;99329.58;106330;1257;108692;-90
2023/09/10 17:01:31;;;;;;;;;;;;;;;21.30;63.56;99331.10;106529;1256;95288;-92
2023/09/10 17:04:00;;;;;;;;;;;;;;;21.21;63.80;99331.27;106700;1257;107228;-90
2023/09/10 17:06:28;;;;;;;;;;;;;;;21.10;64.05;99335.12;106630;1259;95217;-92
2023/09/10 17:11:54;;;;;;;;;;;;;;;20.89;63.88;99334.23;107150;1259;108701;-90
2023/09/10 17:14:22;;;;;;;;;;;;;;;20.79;63.96;99332.63;106973;1257;95248;-91
2023/09/10 21:51:54;;;;;;;;;;;;;;;16.66;67.65;99315.54;108627;1255;94877;31
